sensor_id;sensor_type;location;lat;lon;timestamp;pressure;altitude;pressure_sealevel;temperature;humidity
68169;BME280;54981;50.206;15.978;2022-12-17T00:01:23;98842.06;;;-2.96;100.00
68169;BME280;54981;50.206;15.978;2022-12-17T00:04:42;98829.03;;;-2.93;100.00
68169;BME280;54981;50.206;15.978;2022-12-17T00:08:01;98833.38;;;-2.95;100.00
68169;BME280;54981;50.206;15.978;2022-12-17T00:11:20;98829.94;;;-3.00;100.00
68169;BME280;54981;50.206;15.978;2022-12-17T00:14:39;98838.56;;;-2.92;100.00
68169;BME280;54981;50.206;15.978;2022-12-17T00:18:03;98833.38;;;-2.95;100.00
68169;BME280;54981;50.206;15.978;2022-12-17T00:21:21;98843.78;;;-2.92;100.00
68169;BME280;54981;50.206;15.978;2022-12-17T00:24:40;98851.59;;;-2.92;100.00
68169;BME280;54981;50.206;15.978;2022-12-17T00:27:59;98853.31;;;-2.89;100.00
68169;BME280;54981;50.206;15.978;2022-12-17T00:31:18;98856.78;;;-2.89;100.00
68169;BME280;54981;50.206;15.978;2022-12-17T00:34:37;98856.81;;;-2.92;100.00
68169;BME280;54981;50.206;15.978;2022-12-17T00:37:56;98871.56;;;-2.88;100.00
68169;BME280;54981;50.206;15.978;2022-12-17T00:41:14;98872.44;;;-2.92;100.00
68169;BME280;54981;50.206;15.978;2022-12-17T00:44:33;98876.78;;;-2.88;100.00
68169;BME280;54981;50.206;15.978;2022-12-17T00:47:52;98874.19;;;-2.88;100.00
68169;BME280;54981;50.206;15.978;2022-12-17T00:51:11;98874.19;;;-2.91;100.00
68169;BME280;54981;50.206;15.978;2022-12-17T00:54:30;98875.91;;;-2.88;100.00
68169;BME280;54981;50.206;15.978;2022-12-17T00:57:53;98887.19;;;-2.88;100.00
68169;BME280;54981;50.206;15.978;2022-12-17T01:01:12;98891.53;;;-2.84;100.00
68169;BME280;54981;50.206;15.978;2022-12-17T01:04:31;98894.13;;;-2.85;100.00
68169;BME280;54981;50.206;15.978;2022-12-17T01:07:50;98885.44;;;-2.89;100.00
68169;BME280;54981;50.206;15.978;2022-12-17T01:11:09;98893.25;;;-2.89;100.00
68169;BME280;54981;50.206;15.978;2022-12-17T01:14:28;98898.47;;;-2.89;100.00
68169;BME280;54981;50.206;15.978;2022-12-17T01:17:47;98899.34;;;-2.87;100.00
68169;BME280;54981;50.206;15.978;2022-12-17T01:21:05;98904.59;;;-2.93;100.00
68169;BME280;54981;50.206;15.978;2022-12-17T01:24:24;98916.75;;;-2.93;100.00
68169;BME280;54981;50.206;15.978;2022-12-17T01:27:47;98917.59;;;-2.94;100.00
68169;BME280;54981;50.206;15.978;2022-12-17T01:31:06;98925.41;;;-2.93;100.00
68169;BME280;54981;50.206;15.978;2022-12-17T01:34:26;98921.94;;;-3.00;100.00
68169;BME280;54981;50.206;15.978;2022-12-17T01:37:45;98928.00;;;-3.04;100.00
68169;BME280;54981;50.206;15.978;2022-12-17T01:41:05;98934.97;;;-2.98;100.00
68169;BME280;54981;50.206;15.978;2022-12-17T01:48:02;98936.72;;;-3.09;100.00
68169;BME280;54981;50.206;15.978;2022-12-17T01:51:23;98945.38;;;-3.01;100.00
68169;BME280;54981;50.206;15.978;2022-12-17T01:54:43;98953.19;;;-3.09;100.00
68169;BME280;54981;50.206;15.978;2022-12-17T01:58:02;98954.06;;;-3.11;100.00
68169;BME280;54981;50.206;15.978;2022-12-17T02:01:22;98951.47;;;-3.08;100.00
68169;BME280;54981;50.206;15.978;2022-12-17T02:04:41;98951.47;;;-3.05;100.00
68169;BME280;54981;50.206;15.978;2022-12-17T02:15:23;98964.50;;;-3.14;100.00
68169;BME280;54981;50.206;15.978;2022-12-17T02:18:52;98961.03;;;-3.12;100.00
68169;BME280;54981;50.206;15.978;2022-12-17T02:26:03;98957.53;;;-3.11;100.00
68169;BME280;54981;50.206;15.978;2022-12-17T02:29:27;98964.50;;;-3.05;100.00
68169;BME280;54981;50.206;15.978;2022-12-17T02:32:48;98956.69;;;-3.02;100.00
68169;BME280;54981;50.206;15.978;2022-12-17T02:36:08;98963.59;;;-3.01;100.00
68169;BME280;54981;50.206;15.978;2022-12-17T02:39:27;98972.31;;;-3.01;100.00
68169;BME280;54981;50.206;15.978;2022-12-17T02:42:47;98964.50;;;-3.10;100.00
68169;BME280;54981;50.206;15.978;2022-12-17T02:46:07;98966.22;;;-3.06;100.00
68169;BME280;54981;50.206;15.978;2022-12-17T02:49:26;98967.09;;;-3.05;100.00
68169;BME280;54981;50.206;15.978;2022-12-17T02:52:47;98967.09;;;-3.04;100.00
68169;BME280;54981;50.206;15.978;2022-12-17T02:56:06;98971.44;;;-3.04;100.00
68169;BME280;54981;50.206;15.978;2022-12-17T02:59:25;98973.19;;;-3.05;100.00
68169;BME280;54981;50.206;15.978;2022-12-17T03:02:44;98988.81;;;-3.05;100.00
68169;BME280;54981;50.206;15.978;2022-12-17T03:06:04;98984.44;;;-3.04;100.00
68169;BME280;54981;50.206;15.978;2022-12-17T03:09:23;98987.06;;;-2.98;100.00
68169;BME280;54981;50.206;15.978;2022-12-17T03:12:42;98987.06;;;-2.93;100.00
68169;BME280;54981;50.206;15.978;2022-12-17T03:16:09;98989.66;;;-2.89;100.00
68169;BME280;54981;50.206;15.978;2022-12-17T03:19:28;98981.84;;;-2.95;100.00
68169;BME280;54981;50.206;15.978;2022-12-17T03:22:47;98987.06;;;-2.96;100.00
68169;BME280;54981;50.206;15.978;2022-12-17T03:26:06;98992.25;;;-2.92;100.00
68169;BME280;54981;50.206;15.978;2022-12-17T03:29:25;98998.34;;;-2.87;100.00
68169;BME280;54981;50.206;15.978;2022-12-17T03:32:44;99013.09;;;-2.84;100.00
68169;BME280;54981;50.206;15.978;2022-12-17T03:36:20;99003.53;;;-2.74;100.00
68169;BME280;54981;50.206;15.978;2022-12-17T03:39:39;99019.19;;;-2.71;100.00
68169;BME280;54981;50.206;15.978;2022-12-17T03:43:04;99026.16;;;-2.64;100.00
68169;BME280;54981;50.206;15.978;2022-12-17T03:46:23;99025.28;;;-2.66;100.00
68169;BME280;54981;50.206;15.978;2022-12-17T03:49:41;99033.94;;;-2.61;100.00
68169;BME280;54981;50.206;15.978;2022-12-17T03:53:03;99034.81;;;-2.59;100.00
68169;BME280;54981;50.206;15.978;2022-12-17T03:56:23;99032.19;;;-2.53;100.00
68169;BME280;54981;50.206;15.978;2022-12-17T03:59:42;99041.75;;;-2.49;100.00
68169;BME280;54981;50.206;15.978;2022-12-17T04:03:01;99046.13;;;-2.62;100.00
68169;BME280;54981;50.206;15.978;2022-12-17T04:06:19;99050.47;;;-2.68;100.00
68169;BME280;54981;50.206;15.978;2022-12-17T04:09:38;99051.34;;;-2.66;100.00
68169;BME280;54981;50.206;15.978;2022-12-17T04:12:57;99063.47;;;-2.70;100.00
68169;BME280;54981;50.206;15.978;2022-12-17T04:16:16;99073.03;;;-2.70;100.00
68169;BME280;54981;50.206;15.978;2022-12-17T04:19:35;99062.63;;;-2.70;100.00
68169;BME280;54981;50.206;15.978;2022-12-17T04:22:54;99073.03;;;-2.73;100.00
68169;BME280;54981;50.206;15.978;2022-12-17T04:26:12;99080.00;;;-2.71;100.00
68169;BME280;54981;50.206;15.978;2022-12-17T04:29:31;99086.06;;;-2.72;100.00
68169;BME280;54981;50.206;15.978;2022-12-17T04:32:56;99089.53;;;-2.70;100.00
68169;BME280;54981;50.206;15.978;2022-12-17T04:36:16;99094.78;;;-2.71;100.00
68169;BME280;54981;50.206;15.978;2022-12-17T04:39:35;99099.13;;;-2.64;100.00
68169;BME280;54981;50.206;15.978;2022-12-17T04:42:54;99109.53;;;-2.61;100.00
68169;BME280;54981;50.206;15.978;2022-12-17T04:46:13;99112.16;;;-2.61;100.00
68169;BME280;54981;50.206;15.978;2022-12-17T04:49:32;99113.03;;;-2.59;100.00
68169;BME280;54981;50.206;15.978;2022-12-17T04:53:02;99119.09;;;-2.66;100.00
68169;BME280;54981;50.206;15.978;2022-12-17T04:56:21;99121.69;;;-2.60;100.00
68169;BME280;54981;50.206;15.978;2022-12-17T04:59:40;99129.50;;;-2.48;100.00
68169;BME280;54981;50.206;15.978;2022-12-17T05:03:10;99135.59;;;-2.44;100.00
68169;BME280;54981;50.206;15.978;2022-12-17T05:06:30;99139.97;;;-2.45;100.00
68169;BME280;54981;50.206;15.978;2022-12-17T05:09:49;99139.97;;;-2.45;100.00
68169;BME280;54981;50.206;15.978;2022-12-17T05:13:09;99151.25;;;-2.41;100.00
68169;BME280;54981;50.206;15.978;2022-12-17T05:16:28;99146.91;;;-2.54;100.00
68169;BME280;54981;50.206;15.978;2022-12-17T05:19:47;99150.38;;;-2.66;100.00
68169;BME280;54981;50.206;15.978;2022-12-17T05:23:08;99153.81;;;-2.78;100.00
68169;BME280;54981;50.206;15.978;2022-12-17T05:26:27;99146.88;;;-2.73;100.00
68169;BME280;54981;50.206;15.978;2022-12-17T05:29:46;99152.94;;;-2.72;100.00
68169;BME280;54981;50.206;15.978;2022-12-17T05:33:05;99155.56;;;-2.74;100.00
68169;BME280;54981;50.206;15.978;2022-12-17T05:36:24;99161.66;;;-2.73;100.00
68169;BME280;54981;50.206;15.978;2022-12-17T05:39:44;99163.34;;;-2.82;100.00
68169;BME280;54981;50.206;15.978;2022-12-17T05:43:05;99171.22;;;-2.54;100.00
68169;BME280;54981;50.206;15.978;2022-12-17T05:46:24;99176.44;;;-2.59;100.00
68169;BME280;54981;50.206;15.978;2022-12-17T05:49:44;99177.31;;;-2.52;100.00
68169;BME280;54981;50.206;15.978;2022-12-17T05:53:04;99185.13;;;-2.58;100.00
68169;BME280;54981;50.206;15.978;2022-12-17T05:56:23;99194.66;;;-2.63;100.00
68169;BME280;54981;50.206;15.978;2022-12-17T05:59:42;99195.50;;;-2.75;100.00
68169;BME280;54981;50.206;15.978;2022-12-17T06:03:02;99196.41;;;-2.64;100.00
68169;BME280;54981;50.206;15.978;2022-12-17T06:06:22;99199.91;;;-2.42;100.00
68169;BME280;54981;50.206;15.978;2022-12-17T06:09:41;99206.88;;;-2.44;100.00
68169;BME280;54981;50.206;15.978;2022-12-17T06:12:59;99217.28;;;-2.56;100.00
68169;BME280;54981;50.206;15.978;2022-12-17T06:16:19;99220.72;;;-2.60;100.00
68169;BME280;54981;50.206;15.978;2022-12-17T06:19:38;99223.34;;;-2.69;100.00
68169;BME280;54981;50.206;15.978;2022-12-17T06:23:01;99223.28;;;-2.77;100.00
68169;BME280;54981;50.206;15.978;2022-12-17T06:26:20;99235.44;;;-2.82;100.00
68169;BME280;54981;50.206;15.978;2022-12-17T06:29:39;99236.28;;;-2.91;100.00
68169;BME280;54981;50.206;15.978;2022-12-17T06:33:06;99240.59;;;-2.91;100.00
68169;BME280;54981;50.206;15.978;2022-12-17T06:36:25;99253.59;;;-3.02;100.00
68169;BME280;54981;50.206;15.978;2022-12-17T06:39:44;99253.66;;;-2.90;100.00
68169;BME280;54981;50.206;15.978;2022-12-17T06:43:03;99262.25;;;-3.03;100.00
68169;BME280;54981;50.206;15.978;2022-12-17T06:46:22;99264.88;;;-3.02;100.00
68169;BME280;54981;50.206;15.978;2022-12-17T06:49:41;99272.72;;;-2.94;100.00
68169;BME280;54981;50.206;15.978;2022-12-17T06:53:01;99274.56;;;-2.73;100.00
68169;BME280;54981;50.206;15.978;2022-12-17T06:56:21;99288.44;;;-2.83;100.00
68169;BME280;54981;50.206;15.978;2022-12-17T06:59:40;99296.19;;;-2.89;100.00
68169;BME280;54981;50.206;15.978;2022-12-17T07:02:58;99291.78;;;-3.04;100.00
68169;BME280;54981;50.206;15.978;2022-12-17T07:06:17;99297.00;;;-3.04;100.00
68169;BME280;54981;50.206;15.978;2022-12-17T07:12:15;99306.59;;;-2.97;100.00
68169;BME280;54981;50.206;15.978;2022-12-17T07:17:34;99322.31;;;-2.79;100.00
68169;BME280;54981;50.206;15.978;2022-12-17T07:22:54;99325.81;;;-2.72;100.00
68169;BME280;54981;50.206;15.978;2022-12-17T07:28:14;99338.00;;;-2.69;100.00
68169;BME280;54981;50.206;15.978;2022-12-17T07:33:33;99338.03;;;-2.60;100.00
68169;BME280;54981;50.206;15.978;2022-12-17T07:38:53;99349.28;;;-2.73;100.00
68169;BME280;54981;50.206;15.978;2022-12-17T07:44:12;99349.28;;;-2.73;100.00
68169;BME280;54981;50.206;15.978;2022-12-17T07:49:32;99356.25;;;-2.69;100.00
68169;BME280;54981;50.206;15.978;2022-12-17T07:54:51;99361.41;;;-2.80;100.00
68169;BME280;54981;50.206;15.978;2022-12-17T08:00:10;99374.41;;;-2.82;100.00
68169;BME280;54981;50.206;15.978;2022-12-17T08:05:50;99384.84;;;-2.80;100.00
68169;BME280;54981;50.206;15.978;2022-12-17T08:11:09;99387.63;;;-2.45;100.00
68169;BME280;54981;50.206;15.978;2022-12-17T08:16:28;99390.31;;;-2.26;100.00
68169;BME280;54981;50.206;15.978;2022-12-17T08:21:47;99402.50;;;-2.24;100.00
68169;BME280;54981;50.206;15.978;2022-12-17T08:27:05;99407.75;;;-2.07;100.00
68169;BME280;54981;50.206;15.978;2022-12-17T08:32:24;99413.72;;;-2.42;100.00
68169;BME280;54981;50.206;15.978;2022-12-17T08:37:43;99421.75;;;-1.86;100.00
68169;BME280;54981;50.206;15.978;2022-12-17T08:43:03;99435.66;;;-1.92;100.00
68169;BME280;54981;50.206;15.978;2022-12-17T08:48:21;99439.22;;;-1.62;100.00
68169;BME280;54981;50.206;15.978;2022-12-17T08:53:40;99444.47;;;-1.45;100.00
68169;BME280;54981;50.206;15.978;2022-12-17T08:58:59;99453.16;;;-1.50;100.00
68169;BME280;54981;50.206;15.978;2022-12-17T09:04:26;99447.03;;;-1.64;100.00
68169;BME280;54981;50.206;15.978;2022-12-17T09:09:45;99455.66;;;-1.96;100.00
68169;BME280;54981;50.206;15.978;2022-12-17T09:15:04;99457.47;;;-1.64;100.00
68169;BME280;54981;50.206;15.978;2022-12-17T09:20:24;99458.38;;;-1.53;100.00
68169;BME280;54981;50.206;15.978;2022-12-17T09:25:43;99460.97;;;-1.62;100.00
68169;BME280;54981;50.206;15.978;2022-12-17T09:31:09;99463.56;;;-1.62;100.00
68169;BME280;54981;50.206;15.978;2022-12-17T09:36:28;99460.97;;;-1.68;100.00
68169;BME280;54981;50.206;15.978;2022-12-17T09:52:55;99487.97;;;-1.52;100.00
68169;BME280;54981;50.206;15.978;2022-12-17T09:58:18;99495.00;;;-1.16;99.49
68169;BME280;54981;50.206;15.978;2022-12-17T10:03:38;99497.53;;;-1.62;99.85
68169;BME280;54981;50.206;15.978;2022-12-17T10:09:10;99495.00;;;-1.31;98.75
68169;BME280;54981;50.206;15.978;2022-12-17T10:14:30;99502.88;;;-0.97;96.56
68169;BME280;54981;50.206;15.978;2022-12-17T10:19:52;99503.72;;;-1.01;97.09
68169;BME280;54981;50.206;15.978;2022-12-17T10:25:18;99519.41;;;-1.12;95.98
68169;BME280;54981;50.206;15.978;2022-12-17T10:30:37;99530.69;;;-1.24;95.46
68169;BME280;54981;50.206;15.978;2022-12-17T10:35:56;99528.94;;;-1.28;96.93
68169;BME280;54981;50.206;15.978;2022-12-17T10:41:25;99535.09;;;-1.08;97.38
68169;BME280;54981;50.206;15.978;2022-12-17T10:46:44;99543.84;;;-0.72;94.84
68169;BME280;54981;50.206;15.978;2022-12-17T10:52:06;99538.53;;;-1.21;98.16
68169;BME280;54981;50.206;15.978;2022-12-17T10:57:37;99545.56;;;-1.11;97.26
68169;BME280;54981;50.206;15.978;2022-12-17T11:02:56;99548.19;;;-0.98;96.73
68169;BME280;54981;50.206;15.978;2022-12-17T11:08:18;99553.44;;;-0.81;95.04
68169;BME280;54981;50.206;15.978;2022-12-17T11:13:44;99574.31;;;-0.92;95.92
68169;BME280;54981;50.206;15.978;2022-12-17T11:24:31;99576.00;;;-1.25;95.68
68169;BME280;54981;50.206;15.978;2022-12-17T11:29:54;99569.09;;;-0.83;95.41
68169;BME280;54981;50.206;15.978;2022-12-17T11:35:23;99572.59;;;-0.81;95.18
68169;BME280;54981;50.206;15.978;2022-12-17T11:40:48;99588.28;;;-0.41;94.45
68169;BME280;54981;50.206;15.978;2022-12-17T11:51:46;99596.13;;;-0.72;94.64
68169;BME280;54981;50.206;15.978;2022-12-17T12:02:54;99603.09;;;-0.72;96.43
68169;BME280;54981;50.206;15.978;2022-12-17T12:08:23;99610.94;;;-0.46;94.27
68169;BME280;54981;50.206;15.978;2022-12-17T12:19:27;99608.38;;;-0.38;94.16
68169;BME280;54981;50.206;15.978;2022-12-17T12:30:28;99604.84;;;-0.30;93.91
68169;BME280;54981;50.206;15.978;2022-12-17T12:35:57;99610.97;;;-0.55;94.85
68169;BME280;54981;50.206;15.978;2022-12-17T12:41:23;99620.56;;;-0.62;95.17
68169;BME280;54981;50.206;15.978;2022-12-17T12:47:01;99617.06;;;-0.62;96.44
68169;BME280;54981;50.206;15.978;2022-12-17T12:52:25;99636.22;;;-0.68;96.91
68169;BME280;54981;50.206;15.978;2022-12-17T13:03:19;99658.00;;;-0.68;97.86
68169;BME280;54981;50.206;15.978;2022-12-17T13:08:41;99654.47;;;-0.93;98.38
68169;BME280;54981;50.206;15.978;2022-12-17T13:13:44;99655.31;;;-1.03;99.21
68169;BME280;54981;50.206;15.978;2022-12-17T13:24:23;99670.00;;;-1.28;100.00
68169;BME280;54981;50.206;15.978;2022-12-17T13:29:28;99677.81;;;-1.42;100.00
68169;BME280;54981;50.206;15.978;2022-12-17T13:45:14;99692.69;;;-1.21;100.00
68169;BME280;54981;50.206;15.978;2022-12-17T13:50:21;99704.84;;;-1.29;100.00
68169;BME280;54981;50.206;15.978;2022-12-17T13:55:25;99708.34;;;-1.27;100.00
68169;BME280;54981;50.206;15.978;2022-12-17T14:00:28;99713.47;;;-1.45;100.00
68169;BME280;54981;50.206;15.978;2022-12-17T14:05:35;99720.47;;;-1.41;100.00
68169;BME280;54981;50.206;15.978;2022-12-17T14:10:36;99721.47;;;-1.18;100.00
68169;BME280;54981;50.206;15.978;2022-12-17T14:15:37;99736.22;;;-1.23;100.00
68169;BME280;54981;50.206;15.978;2022-12-17T14:20:39;99748.31;;;-1.40;100.00
68169;BME280;54981;50.206;15.978;2022-12-17T14:25:42;99744.88;;;-1.36;100.00
68169;BME280;54981;50.206;15.978;2022-12-17T14:30:42;99750.03;;;-1.48;100.00
68169;BME280;54981;50.206;15.978;2022-12-17T14:35:50;99759.56;;;-1.54;100.00
68169;BME280;54981;50.206;15.978;2022-12-17T14:40:51;99769.19;;;-1.46;100.00
68169;BME280;54981;50.206;15.978;2022-12-17T14:45:58;99772.66;;;-1.47;100.00
68169;BME280;54981;50.206;15.978;2022-12-17T14:51:26;99785.72;;;-1.47;100.00
68169;BME280;54981;50.206;15.978;2022-12-17T14:56:27;99776.91;;;-1.60;100.00
68169;BME280;54981;50.206;15.978;2022-12-17T15:01:28;99795.34;;;-1.39;100.00
68169;BME280;54981;50.206;15.978;2022-12-17T15:06:28;99791.81;;;-1.48;100.00
68169;BME280;54981;50.206;15.978;2022-12-17T15:11:28;99801.31;;;-1.55;100.00
68169;BME280;54981;50.206;15.978;2022-12-17T15:16:29;99807.44;;;-1.52;100.00
68169;BME280;54981;50.206;15.978;2022-12-17T15:21:30;99820.50;;;-1.53;100.00
68169;BME280;54981;50.206;15.978;2022-12-17T15:26:31;99827.47;;;-1.54;100.00
68169;BME280;54981;50.206;15.978;2022-12-17T15:31:31;99828.41;;;-1.41;100.00
68169;BME280;54981;50.206;15.978;2022-12-17T15:36:31;99829.25;;;-1.45;100.00
68169;BME280;54981;50.206;15.978;2022-12-17T15:41:32;99844.00;;;-1.52;100.00
68169;BME280;54981;50.206;15.978;2022-12-17T15:46:51;99845.75;;;-1.54;100.00
68169;BME280;54981;50.206;15.978;2022-12-17T15:51:51;99847.44;;;-1.59;100.00
68169;BME280;54981;50.206;15.978;2022-12-17T15:56:51;99850.06;;;-1.54;100.00
68169;BME280;54981;50.206;15.978;2022-12-17T16:01:52;99862.09;;;-1.75;100.00
68169;BME280;54981;50.206;15.978;2022-12-17T16:06:52;99859.53;;;-1.67;100.00
68169;BME280;54981;50.206;15.978;2022-12-17T16:11:53;99862.06;;;-1.78;100.00
68169;BME280;54981;50.206;15.978;2022-12-17T16:16:53;99873.22;;;-1.91;100.00
68169;BME280;54981;50.206;15.978;2022-12-17T16:21:54;99878.41;;;-1.93;100.00
68169;BME280;54981;50.206;15.978;2022-12-17T16:26:54;99887.84;;;-2.05;100.00
68169;BME280;54981;50.206;15.978;2022-12-17T16:31:54;99884.41;;;-2.04;100.00
68169;BME280;54981;50.206;15.978;2022-12-17T16:36:54;99894.97;;;-1.90;100.00
68169;BME280;54981;50.206;15.978;2022-12-17T16:41:54;99896.34;;;-2.22;100.00
68169;BME280;54981;50.206;15.978;2022-12-17T16:46:55;99891.09;;;-2.28;100.00
68169;BME280;54981;50.206;15.978;2022-12-17T16:51:55;99900.38;;;-2.48;100.00
68169;BME280;54981;50.206;15.978;2022-12-17T16:56:56;99898.53;;;-2.55;100.00
68169;BME280;54981;50.206;15.978;2022-12-17T17:01:56;99899.16;;;-2.75;100.00
68169;BME280;54981;50.206;15.978;2022-12-17T17:06:56;99911.56;;;-3.16;100.00
68169;BME280;54981;50.206;15.978;2022-12-17T17:11:57;99915.56;;;-3.87;100.00
68169;BME280;54981;50.206;15.978;2022-12-17T17:17:00;99918.41;;;-3.75;100.00
68169;BME280;54981;50.206;15.978;2022-12-17T17:22:01;99933.44;;;-4.46;100.00
68169;BME280;54981;50.206;15.978;2022-12-17T17:27:01;99935.47;;;-4.32;100.00
68169;BME280;54981;50.206;15.978;2022-12-17T17:32:01;99945.06;;;-4.29;100.00
68169;BME280;54981;50.206;15.978;2022-12-17T17:37:01;99949.91;;;-4.46;100.00
68169;BME280;54981;50.206;15.978;2022-12-17T17:42:01;99957.31;;;-5.01;97.69
68169;BME280;54981;50.206;15.978;2022-12-17T17:47:02;99962.03;;;-5.21;96.96
68169;BME280;54981;50.206;15.978;2022-12-17T17:52:02;99972.06;;;-6.89;93.07
68169;BME280;54981;50.206;15.978;2022-12-17T17:57:03;99985.50;;;-8.01;94.18
68169;BME280;54981;50.206;15.978;2022-12-17T18:02:03;99987.81;;;-8.09;96.81
68169;BME280;54981;50.206;15.978;2022-12-17T18:07:03;99990.13;;;-8.17;99.18
68169;BME280;54981;50.206;15.978;2022-12-17T18:12:04;100002.03;;;-7.96;97.60
68169;BME280;54981;50.206;15.978;2022-12-17T18:17:24;100005.81;;;-7.88;97.31
68169;BME280;54981;50.206;15.978;2022-12-17T18:22:24;100025.72;;;-7.85;95.47
68169;BME280;54981;50.206;15.978;2022-12-17T18:27:24;100031.59;;;-7.89;95.14
68169;BME280;54981;50.206;15.978;2022-12-17T18:32:25;100041.69;;;-9.08;95.96
68169;BME280;54981;50.206;15.978;2022-12-17T18:37:25;100038.09;;;-8.68;97.72
68169;BME280;54981;50.206;15.978;2022-12-17T18:42:25;100048.47;;;-8.89;97.91
68169;BME280;54981;50.206;15.978;2022-12-17T18:47:44;100055.19;;;-8.93;94.90
68169;BME280;54981;50.206;15.978;2022-12-17T18:52:45;100058.47;;;-9.58;93.33
68169;BME280;54981;50.206;15.978;2022-12-17T18:57:45;100064.06;;;-9.28;93.99
68169;BME280;54981;50.206;15.978;2022-12-17T19:02:45;100069.88;;;-9.73;95.83
68169;BME280;54981;50.206;15.978;2022-12-17T19:07:45;100083.13;;;-10.22;96.51
68169;BME280;54981;50.206;15.978;2022-12-17T19:12:45;100085.53;;;-9.88;96.85
68169;BME280;54981;50.206;15.978;2022-12-17T19:17:46;100094.69;;;-9.94;94.01
68169;BME280;54981;50.206;15.978;2022-12-17T19:22:49;100093.59;;;-9.80;94.97
68169;BME280;54981;50.206;15.978;2022-12-17T19:27:50;100091.53;;;-10.07;94.56
68169;BME280;54981;50.206;15.978;2022-12-17T19:32:50;100103.88;;;-10.19;94.51
68169;BME280;54981;50.206;15.978;2022-12-17T19:37:50;100108.97;;;-10.01;98.25
68169;BME280;54981;50.206;15.978;2022-12-17T19:42:53;100112.19;;;-9.87;97.00
68169;BME280;54981;50.206;15.978;2022-12-17T19:47:54;100114.03;;;-10.22;95.53
68169;BME280;54981;50.206;15.978;2022-12-17T19:52:54;100118.06;;;-10.27;93.89
68169;BME280;54981;50.206;15.978;2022-12-17T19:57:54;100119.22;;;-10.20;92.31
68169;BME280;54981;50.206;15.978;2022-12-17T20:02:54;100130.06;;;-10.27;91.27
68169;BME280;54981;50.206;15.978;2022-12-17T20:07:54;100135.50;;;-10.21;92.88
68169;BME280;54981;50.206;15.978;2022-12-17T20:12:55;100154.97;;;-10.46;94.11
68169;BME280;54981;50.206;15.978;2022-12-17T20:17:55;100153.97;;;-10.66;98.11
68169;BME280;54981;50.206;15.978;2022-12-17T20:22:55;100168.75;;;-11.80;100.00
68169;BME280;54981;50.206;15.978;2022-12-17T20:27:55;100165.59;;;-11.08;100.00
68169;BME280;54981;50.206;15.978;2022-12-17T20:32:55;100173.97;;;-11.45;100.00
68169;BME280;54981;50.206;15.978;2022-12-17T20:37:56;100187.06;;;-11.08;100.00
68169;BME280;54981;50.206;15.978;2022-12-17T20:42:56;100183.41;;;-10.95;98.88
68169;BME280;54981;50.206;15.978;2022-12-17T20:47:56;100187.28;;;-10.69;98.46
68169;BME280;54981;50.206;15.978;2022-12-17T20:52:56;100203.19;;;-10.60;96.69
68169;BME280;54981;50.206;15.978;2022-12-17T20:57:56;100194.03;;;-10.71;95.11
68169;BME280;54981;50.206;15.978;2022-12-17T21:02:58;100209.88;;;-11.30;96.60
68169;BME280;54981;50.206;15.978;2022-12-17T21:07:58;100211.56;;;-10.64;96.69
68169;BME280;54981;50.206;15.978;2022-12-17T21:12:58;100214.53;;;-10.38;97.36
68169;BME280;54981;50.206;15.978;2022-12-17T21:18:17;100216.88;;;-10.07;94.21
68169;BME280;54981;50.206;15.978;2022-12-17T21:23:17;100218.72;;;-10.40;94.72
68169;BME280;54981;50.206;15.978;2022-12-17T21:28:17;100228.06;;;-10.07;94.50
68169;BME280;54981;50.206;15.978;2022-12-17T21:33:17;100237.03;;;-10.34;96.13
68169;BME280;54981;50.206;15.978;2022-12-17T21:38:18;100232.03;;;-9.95;95.16
68169;BME280;54981;50.206;15.978;2022-12-17T21:43:18;100234.97;;;-9.88;97.24
68169;BME280;54981;50.206;15.978;2022-12-17T21:48:18;100246.41;;;-9.63;96.73
68169;BME280;54981;50.206;15.978;2022-12-17T21:53:18;100254.59;;;-9.72;99.61
68169;BME280;54981;50.206;15.978;2022-12-17T21:58:19;100257.31;;;-9.31;100.00
68169;BME280;54981;50.206;15.978;2022-12-17T22:03:21;100256.22;;;-8.99;99.66
68169;BME280;54981;50.206;15.978;2022-12-17T22:08:21;100257.53;;;-8.68;99.53
68169;BME280;54981;50.206;15.978;2022-12-17T22:13:21;100262.41;;;-8.55;99.35
68169;BME280;54981;50.206;15.978;2022-12-17T22:18:40;100265.38;;;-8.46;100.00
68169;BME280;54981;50.206;15.978;2022-12-17T22:23:40;100267.78;;;-8.50;100.00
68169;BME280;54981;50.206;15.978;2022-12-17T22:28:41;100276.25;;;-8.11;100.00
68169;BME280;54981;50.206;15.978;2022-12-17T22:33:42;100281.44;;;-8.11;100.00
68169;BME280;54981;50.206;15.978;2022-12-17T22:38:47;100289.06;;;-8.14;100.00
68169;BME280;54981;50.206;15.978;2022-12-17T22:43:47;100289.94;;;-8.14;100.00
68169;BME280;54981;50.206;15.978;2022-12-17T22:48:47;100293.09;;;-8.21;100.00
68169;BME280;54981;50.206;15.978;2022-12-17T22:53:47;100294.50;;;-8.08;100.00
68169;BME280;54981;50.206;15.978;2022-12-17T22:58:48;100304.00;;;-8.07;100.00
68169;BME280;54981;50.206;15.978;2022-12-17T23:03:48;100304.44;;;-7.96;100.00
68169;BME280;54981;50.206;15.978;2022-12-17T23:08:48;100311.56;;;-7.90;100.00
68169;BME280;54981;50.206;15.978;2022-12-17T23:13:49;100311.31;;;-7.76;100.00
68169;BME280;54981;50.206;15.978;2022-12-17T23:18:50;100317.53;;;-7.71;100.00
68169;BME280;54981;50.206;15.978;2022-12-17T23:23:51;100322.34;;;-7.36;100.00
68169;BME280;54981;50.206;15.978;2022-12-17T23:28:55;100329.25;;;-7.58;100.00
68169;BME280;54981;50.206;15.978;2022-12-17T23:33:57;100322.72;;;-7.71;100.00
68169;BME280;54981;50.206;15.978;2022-12-17T23:38:58;100329.09;;;-7.83;100.00
68169;BME280;54981;50.206;15.978;2022-12-17T23:43:58;100325.81;;;-7.79;100.00
68169;BME280;54981;50.206;15.978;2022-12-17T23:48:59;100338.13;;;-7.74;100.00
68169;BME280;54981;50.206;15.978;2022-12-17T23:53:59;100330.78;;;-7.63;100.00
68169;BME280;54981;50.206;15.978;2022-12-17T23:59:00;100334.31;;;-7.61;100.00
